Ambrose, North Dakota
Current Conditions -  °F | °C
As of 1:15 PM on Tuesday 21 Oct 2014 (Local Time) from KD50 Reporting Station
Clear Clear  
Wind Chill: 68°   Ceiling: Unl
Heat Index: 68°   Visibility: 10mi
Dew Point: 41°   Wind: 9mph
Humidity: 37%   Direction: 120°ESE
Pressure: 29.66"   Gusts: NA
Location:  48.95°N, 103.48°W
Report Text: KD50 211815Z AUTO 12008KT 10SM CLR 20/05 A2966 RMK AO2
Loading
Personal Weather Stations






























Interactive Weather Map
Tropical Storm Tracking
New forecast layout! Learn more

10-Day Weather Forecast

Advertisements
Track Severe Weather on mobile